Time;durP1;ratioP1;P1;durP2;ratioP2;P2;SDS_P1;SDS_P2;PMS_P1;PMS_P2;Temp;Humidity;BMP_temperature;BMP_pressure;BME280_temperature;BME280_humidity;BME280_pressure;Samples;Min_cycle;Max_cycle;Signal;HPM_P1;HPM_P2
2022/03/14 00:02:13;;;;;;;28.20;16.83;;;12.90;16.70;;;;;;4991727;28;21061;-73
2022/03/14 00:04:38;;;;;;;32.07;17.20;;;13.30;15.70;;;;;;4987505;28;20183;-73
2022/03/14 00:07:05;;;;;;;32.30;17.83;;;13.50;15.80;;;;;;4981979;28;20440;-73
2022/03/14 00:09:30;;;;;;;27.73;16.63;;;13.30;15.80;;;;;;4982946;28;20202;-73
2022/03/14 00:11:57;;;;;;;34.67;18.50;;;13.30;16.20;;;;;;4991633;28;20425;-73
2022/03/14 00:14:26;;;;;;;30.87;17.60;;;13.70;15.10;;;;;;4992559;28;20182;-73
2022/03/14 00:16:52;;;;;;;39.13;18.20;;;13.80;15.50;;;;;;4986060;28;20479;-73
2022/03/14 00:19:20;;;;;;;30.23;18.07;;;13.60;16.30;;;;;;4990028;28;20543;-74
2022/03/14 00:21:46;;;;;;;38.63;17.33;;;13.60;16.90;;;;;;4982776;28;20908;-73
2022/03/14 00:24:12;;;;;;;30.03;18.30;;;13.40;16.90;;;;;;4979404;28;20418;-73
2022/03/14 00:26:39;;;;;;;37.17;20.40;;;13.00;16.70;;;;;;4986581;28;20487;-73
2022/03/14 00:29:06;;;;;;;39.13;19.40;;;12.50;16.80;;;;;;4986830;28;20516;-72
2022/03/14 00:31:31;;;;;;;40.93;18.03;;;12.20;17.80;;;;;;4985690;28;20429;-72
2022/03/14 00:33:57;;;;;;;35.33;17.90;;;12.10;17.30;;;;;;4991122;28;20429;-73
2022/03/14 00:36:25;;;;;;;37.23;17.53;;;12.60;16.90;;;;;;4984238;28;20910;-72
2022/03/14 00:38:51;;;;;;;35.80;19.10;;;12.90;15.50;;;;;;4983179;28;20206;-72
2022/03/14 00:41:17;;;;;;;44.83;19.47;;;13.10;17.60;;;;;;4991495;28;20795;-73
2022/03/14 00:43:43;;;;;;;40.30;18.80;;;13.10;17.50;;;;;;4990547;28;20426;-73
2022/03/14 00:46:08;;;;;;;37.93;18.33;;;13.00;16.20;;;;;;4990679;28;20426;-72
2022/03/14 00:48:35;;;;;;;33.47;18.30;;;12.70;16.70;;;;;;4980279;28;20211;-72
2022/03/14 00:51:02;;;;;;;37.53;19.17;;;12.90;16.20;;;;;;4981431;28;20183;-73
2022/03/14 00:53:29;;;;;;;39.40;19.07;;;12.50;16.60;;;;;;4991291;28;20425;-73
2022/03/14 00:55:55;;;;;;;35.27;18.03;;;12.40;17.40;;;;;;4992398;28;20484;-73
2022/03/14 00:58:21;;;;;;;30.03;17.77;;;12.40;16.90;;;;;;4983335;28;20551;-72
2022/03/14 01:00:48;;;;;;;32.27;18.83;;;12.40;16.80;;;;;;4983789;28;20583;-73
2022/03/14 01:03:14;;;;;;;38.57;21.53;;;12.60;17.20;;;;;;4985992;28;20181;-72
2022/03/14 01:05:40;;;;;;;43.17;21.97;;;12.20;18.90;;;;;;4991788;28;20786;-72
2022/03/14 01:08:06;;;;;;;39.13;23.87;;;12.20;19.70;;;;;;4983277;28;20198;-72
2022/03/14 01:10:32;;;;;;;58.13;23.00;;;11.80;21.80;;;;;;4982485;28;20178;-73
2022/03/14 01:12:58;;;;;;;44.07;23.90;;;11.80;21.30;;;;;;4988890;28;20429;-73
2022/03/14 01:15:24;;;;;;;41.43;24.20;;;11.70;22.00;;;;;;4991502;28;20483;-72
2022/03/14 01:17:50;;;;;;;50.60;24.50;;;11.70;22.70;;;;;;4982103;28;20198;-72
2022/03/14 01:20:16;;;;;;;46.10;26.20;;;11.80;22.90;;;;;;4983560;28;20824;-74
2022/03/14 01:22:43;;;;;;;47.33;23.93;;;12.00;23.40;;;;;;4987090;28;20183;-73
2022/03/14 01:25:09;;;;;;;45.50;26.13;;;11.80;24.80;;;;;;4994885;28;20181;-71
2022/03/14 01:27:35;;;;;;;44.37;27.47;;;11.40;26.40;;;;;;4986469;28;20461;-71
2022/03/14 01:30:00;;;;;;;46.83;25.60;;;11.50;27.20;;;;;;4995424;28;20222;-73
2022/03/14 01:32:26;;;;;;;50.07;26.93;;;11.40;27.80;;;;;;4992696;28;20192;-71
2022/03/14 01:34:52;;;;;;;46.00;28.17;;;11.80;27.50;;;;;;4990355;28;20180;-72
2022/03/14 01:37:18;;;;;;;50.13;28.97;;;12.10;26.90;;;;;;4991375;28;20450;-72
2022/03/14 01:39:44;;;;;;;51.83;28.10;;;12.30;26.90;;;;;;4995036;28;20275;-71
2022/03/14 01:42:20;;;;;;;47.70;27.50;;;12.40;27.30;;;;;;4995010;28;20430;-72
2022/03/14 01:44:47;;;;;;;47.93;28.73;;;12.50;27.70;;;;;;4993655;28;20804;-75
2022/03/14 01:47:14;;;;;;;50.27;28.80;;;12.90;27.30;;;;;;4994348;28;20457;-71
2022/03/14 01:49:41;;;;;;;45.63;27.17;;;11.80;29.80;;;;;;4994223;28;20808;-71
2022/03/14 01:52:08;;;;;;;53.57;28.20;;;11.90;29.90;;;;;;4994265;28;20421;-71
2022/03/14 01:54:34;;;;;;;42.93;26.53;;;12.20;29.60;;;;;;4992520;28;20436;-72
2022/03/14 01:57:00;;;;;;;46.00;27.20;;;12.50;29.30;;;;;;4983248;28;20454;-72
2022/03/14 01:59:28;;;;;;;60.53;26.40;;;12.40;30.00;;;;;;4991406;28;20474;-71
2022/03/14 02:01:56;;;;;;;42.73;26.40;;;12.40;31.10;;;;;;4989671;28;20692;-72
2022/03/14 02:04:22;;;;;;;42.70;26.27;;;11.90;31.90;;;;;;4983117;28;20422;-72
2022/03/14 02:06:49;;;;;;;38.60;24.20;;;12.10;31.40;;;;;;4994302;28;20445;-72
2022/03/14 02:09:15;;;;;;;43.87;25.80;;;12.10;32.50;;;;;;4993936;28;20440;-72
2022/03/14 02:11:52;;;;;;;33.87;20.67;;;12.20;33.90;;;;;;4981729;28;20511;-72
2022/03/14 02:14:18;;;;;;;41.93;18.30;;;11.80;37.70;;;;;;4987136;28;20462;-72
2022/03/14 02:16:44;;;;;;;27.23;16.27;;;11.30;42.10;;;;;;4988034;28;20473;-73
2022/03/14 02:19:10;;;;;;;22.70;14.10;;;11.50;43.10;;;;;;4992345;28;20511;-73
2022/03/14 02:21:35;;;;;;;32.83;12.90;;;11.50;44.80;;;;;;4992956;28;20551;-73
2022/03/14 02:24:02;;;;;;;27.50;12.27;;;11.60;44.20;;;;;;4992123;28;20186;-73
2022/03/14 02:26:28;;;;;;;16.63;11.30;;;11.00;48.40;;;;;;4993396;28;20205;-73
2022/03/14 02:28:53;;;;;;;13.87;9.90;;;11.00;52.60;;;;;;4993845;28;20421;-73
2022/03/14 02:31:19;;;;;;;18.77;8.83;;;10.90;52.40;;;;;;4987404;28;20184;-73
2022/03/14 02:33:45;;;;;;;7.37;5.60;;;10.90;52.90;;;;;;4983803;28;20556;-73
2022/03/14 02:36:10;;;;;;;6.50;4.70;;;10.30;56.80;;;;;;4986041;28;20215;-73
2022/03/14 02:38:36;;;;;;;4.50;3.30;;;10.40;56.80;;;;;;4984715;28;20500;-73
2022/03/14 02:41:02;;;;;;;7.37;3.50;;;10.30;54.60;;;;;;4986006;28;20186;-73
2022/03/14 02:43:28;;;;;;;4.93;3.00;;;10.30;56.90;;;;;;4993487;28;20261;-73
2022/03/14 02:45:54;;;;;;;3.40;2.60;;;10.90;52.10;;;;;;4985332;28;20190;-73
2022/03/14 02:48:23;;;;;;;3.67;2.20;;;10.80;51.40;;;;;;4992064;28;20468;-73
2022/03/14 02:50:53;;;;;;;2.97;2.40;;;10.80;52.40;;;;;;5019295;23;20631;-78
2022/03/14 02:53:19;;;;;;;3.30;2.33;;;10.60;52.80;;;;;;5013331;28;20486;-77
2022/03/14 02:55:45;;;;;;;4.20;2.17;;;10.40;57.30;;;;;;5013342;28;20424;-77
2022/03/14 02:58:10;;;;;;;2.60;2.00;;;10.90;54.90;;;;;;5009022;28;20413;-78
2022/03/14 03:00:37;;;;;;;2.90;2.33;;;11.00;50.70;;;;;;5008036;28;20198;-77
2022/03/14 03:03:05;;;;;;;4.13;2.50;;;11.40;50.00;;;;;;5014653;28;20174;-77
2022/03/14 03:05:31;;;;;;;3.97;2.30;;;12.30;49.20;;;;;;5008503;28;20489;-78
2022/03/14 03:08:00;;;;;;;5.10;2.03;;;11.90;47.70;;;;;;5013990;28;20424;-77
2022/03/14 03:10:31;;;;;;;7.23;2.40;;;12.20;46.90;;;;;;5014791;28;20827;-77
2022/03/14 03:12:57;;;;;;;4.70;2.20;;;12.40;45.40;;;;;;5006594;28;20470;-77
2022/03/14 03:15:24;;;;;;;3.30;2.23;;;12.30;45.60;;;;;;5010629;28;20467;-77
2022/03/14 03:17:51;;;;;;;3.50;2.40;;;12.30;45.30;;;;;;5014693;28;20654;-78
2022/03/14 03:20:16;;;;;;;4.63;2.53;;;12.20;45.20;;;;;;5010083;28;20501;-77
2022/03/14 03:22:42;;;;;;;2.40;2.03;;;12.00;47.10;;;;;;5009461;28;20425;-77
2022/03/14 03:25:08;;;;;;;4.63;2.47;;;11.90;48.20;;;;;;5013854;28;20175;-77
2022/03/14 03:27:34;;;;;;;3.40;2.30;;;11.70;49.40;;;;;;5007712;28;20178;-77
2022/03/14 03:30:00;;;;;;;2.60;2.20;;;11.60;50.10;;;;;;5012620;28;20251;-77
2022/03/14 03:32:26;;;;;;;6.63;2.50;;;11.40;50.60;;;;;;5013782;28;20424;-77
2022/03/14 03:34:53;;;;;;;4.40;2.43;;;11.90;47.40;;;;;;5014607;28;20451;-77
2022/03/14 03:37:19;;;;;;;2.57;2.20;;;12.30;45.80;;;;;;5014072;28;20205;-77
2022/03/14 03:39:44;;;;;;;4.03;2.30;;;12.30;46.20;;;;;;5015141;28;20522;-77
2022/03/14 03:42:11;;;;;;;2.83;2.20;;;12.80;45.50;;;;;;5013874;28;20436;-77
2022/03/14 03:44:36;;;;;;;3.20;2.37;;;12.10;45.10;;;;;;5012389;28;20174;-77
2022/03/14 03:47:03;;;;;;;3.37;2.33;;;12.10;45.20;;;;;;5001983;28;20431;-76
2022/03/14 03:49:29;;;;;;;3.03;2.40;;;12.20;45.80;;;;;;5007773;28;20577;-79
2022/03/14 03:51:55;;;;;;;2.97;2.20;;;12.30;46.60;;;;;;5014620;28;20529;-79
2022/03/14 03:54:21;;;;;;;3.33;2.10;;;12.50;44.30;;;;;;5028561;28;20437;-79
2022/03/14 03:56:48;;;;;;;2.90;2.30;;;12.60;43.90;;;;;;5031477;28;20188;-79
2022/03/14 03:59:14;;;;;;;3.40;2.40;;;12.40;45.30;;;;;;5022754;28;20452;-79
2022/03/14 04:01:40;;;;;;;4.33;2.10;;;12.30;46.10;;;;;;5012896;28;20455;-77
2022/03/14 04:04:07;;;;;;;3.10;2.60;;;12.20;45.40;;;;;;5007624;28;20177;-77
2022/03/14 04:06:34;;;;;;;2.97;2.40;;;12.40;46.50;;;;;;5010400;28;20432;-77
2022/03/14 04:09:03;;;;;;;2.97;2.33;;;12.90;43.80;;;;;;5000780;28;20429;-77
2022/03/14 04:11:29;;;;;;;3.40;2.50;;;12.40;42.00;;;;;;5008684;28;20452;-77
2022/03/14 04:13:57;;;;;;;3.60;2.60;;;12.10;45.00;;;;;;5009497;28;20432;-77
2022/03/14 04:16:23;;;;;;;3.60;2.60;;;12.50;45.50;;;;;;5008001;28;20181;-77
2022/03/14 04:18:49;;;;;;;3.03;2.50;;;12.80;42.50;;;;;;5012154;28;20479;-77
2022/03/14 04:21:15;;;;;;;4.03;2.70;;;12.90;41.20;;;;;;5003944;28;20531;-77
2022/03/14 04:23:41;;;;;;;2.80;2.40;;;13.00;40.70;;;;;;5012424;28;20194;-77
2022/03/14 04:26:07;;;;;;;4.27;2.97;;;12.60;43.70;;;;;;5012245;28;20494;-77
2022/03/14 04:28:36;;;;;;;4.90;2.70;;;12.40;44.30;;;;;;5011196;28;20509;-77
2022/03/14 04:31:03;;;;;;;5.03;2.73;;;12.30;45.40;;;;;;5003357;28;20498;-77
2022/03/14 04:33:30;;;;;;;4.20;2.93;;;12.00;46.80;;;;;;5011782;28;20432;-77
2022/03/14 04:35:57;;;;;;;5.13;3.03;;;12.10;46.50;;;;;;5003764;28;20431;-79
2022/03/14 04:38:24;;;;;;;3.33;2.67;;;12.20;47.50;;;;;;5003631;28;20987;-77
2022/03/14 04:40:49;;;;;;;3.50;2.63;;;12.60;45.70;;;;;;5010596;28;20799;-77
2022/03/14 04:43:15;;;;;;;3.40;2.47;;;12.50;43.90;;;;;;5012181;28;20431;-77
2022/03/14 04:45:41;;;;;;;6.27;2.80;;;12.90;44.70;;;;;;5003581;28;20500;-77
2022/03/14 04:48:07;;;;;;;3.43;2.73;;;13.10;43.20;;;;;;5004051;28;20186;-77
2022/03/14 04:50:36;;;;;;;3.47;2.40;;;12.90;42.10;;;;;;5000023;28;20453;-77
2022/03/14 04:53:03;;;;;;;3.20;2.40;;;12.70;41.40;;;;;;5011528;28;20422;-78
2022/03/14 04:55:29;;;;;;;3.40;2.60;;;12.50;43.50;;;;;;5003944;28;20420;-77
2022/03/14 04:57:55;;;;;;;10.67;5.70;;;12.60;41.50;;;;;;5015054;28;20428;-77
2022/03/14 05:00:22;;;;;;;8.20;5.17;;;12.70;41.00;;;;;;5012968;28;20208;-77
2022/03/14 05:02:48;;;;;;;6.27;4.30;;;12.50;43.90;;;;;;5012383;28;20247;-78
2022/03/14 05:05:14;;;;;;;3.90;2.97;;;12.20;44.60;;;;;;5015756;28;20423;-78
2022/03/14 05:07:41;;;;;;;5.60;3.40;;;12.60;43.00;;;;;;5006772;28;20788;-78
2022/03/14 05:10:07;;;;;;;3.80;3.10;;;11.80;44.90;;;;;;5005285;28;20459;-78
2022/03/14 05:12:34;;;;;;;4.73;3.00;;;11.80;47.50;;;;;;5012648;28;20782;-78
2022/03/14 05:15:00;;;;;;;3.50;3.17;;;12.00;42.80;;;;;;5011837;28;20523;-77
2022/03/14 05:17:30;;;;;;;5.23;3.00;;;12.00;44.10;;;;;;5011978;28;20420;-78
2022/03/14 05:19:56;;;;;;;4.40;3.20;;;14.10;45.30;;;;;;5003928;28;20472;-78
2022/03/14 05:22:22;;;;;;;3.50;2.77;;;13.10;43.60;;;;;;5009312;28;20460;-77
2022/03/14 05:24:48;;;;;;;4.47;2.83;;;12.60;44.20;;;;;;5028333;28;20436;-77
2022/03/14 05:27:14;;;;;;;3.70;2.80;;;12.40;44.20;;;;;;5013501;28;20260;-77
2022/03/14 05:29:39;;;;;;;3.10;2.63;;;12.20;46.00;;;;;;5014608;28;20462;-77
2022/03/14 05:32:06;;;;;;;3.97;2.87;;;12.20;45.90;;;;;;5004553;28;20209;-77
2022/03/14 05:34:32;;;;;;;6.80;2.70;;;12.40;43.80;;;;;;5007081;28;20173;-77
2022/03/14 05:36:58;;;;;;;3.33;2.70;;;12.40;44.50;;;;;;5013582;28;20433;-77
2022/03/14 05:39:24;;;;;;;4.07;3.03;;;12.50;42.10;;;;;;5011499;28;20492;-77
2022/03/14 05:41:50;;;;;;;3.60;2.83;;;12.80;43.20;;;;;;5011886;28;20925;-77
2022/03/14 05:44:17;;;;;;;3.60;2.67;;;13.00;40.70;;;;;;5013466;28;20522;-77
2022/03/14 05:46:42;;;;;;;3.30;2.60;;;12.80;38.90;;;;;;5013747;28;20177;-77
2022/03/14 05:49:08;;;;;;;3.50;2.70;;;12.60;39.60;;;;;;5006003;28;20521;-77
2022/03/14 05:51:37;;;;;;;4.27;2.80;;;12.60;39.20;;;;;;5005969;28;20274;-77
2022/03/14 05:54:04;;;;;;;3.43;2.83;;;12.50;40.20;;;;;;5013893;28;20185;-77
2022/03/14 05:56:29;;;;;;;3.30;2.63;;;12.40;38.80;;;;;;5013411;28;20511;-77
2022/03/14 05:58:55;;;;;;;2.90;2.20;;;11.80;42.90;;;;;;5004342;28;20548;-77
2022/03/14 06:01:22;;;;;;;3.83;2.70;;;11.70;41.50;;;;;;5005458;28;20259;-77
2022/03/14 06:03:52;;;;;;;3.60;2.50;;;12.10;39.80;;;;;;5005215;28;20174;-77
2022/03/14 06:06:18;;;;;;;3.17;2.40;;;12.30;38.60;;;;;;5004736;28;20815;-77
2022/03/14 06:08:43;;;;;;;4.13;2.30;;;12.40;37.90;;;;;;5004521;28;20425;-77
2022/03/14 06:11:09;;;;;;;3.47;2.53;;;12.30;39.20;;;;;;5011175;28;20216;-77
2022/03/14 06:13:35;;;;;;;3.13;2.73;;;12.40;38.40;;;;;;5012775;28;20190;-77
2022/03/14 06:16:02;;;;;;;4.93;3.00;;;12.70;37.20;;;;;;5012802;28;20280;-77
2022/03/14 06:18:29;;;;;;;5.27;3.10;;;12.80;36.20;;;;;;5004256;28;20459;-77
2022/03/14 06:20:58;;;;;;;3.30;2.50;;;13.00;35.80;;;;;;5012846;28;20510;-77
2022/03/14 06:23:24;;;;;;;3.33;2.43;;;13.10;33.90;;;;;;5013712;28;20784;-77
2022/03/14 06:25:50;;;;;;;4.60;2.77;;;13.20;36.90;;;;;;5029645;28;20420;-77
2022/03/14 06:28:16;;;;;;;3.27;2.40;;;12.70;38.60;;;;;;5013371;28;20249;-77
2022/03/14 06:30:41;;;;;;;3.00;2.47;;;12.30;37.20;;;;;;5013257;28;20205;-77
2022/03/14 06:33:07;;;;;;;4.27;2.93;;;12.50;38.40;;;;;;5006448;28;20420;-77
2022/03/14 06:35:35;;;;;;;5.53;3.00;;;12.50;37.40;;;;;;5013094;28;20824;-77
2022/03/14 06:38:03;;;;;;;4.40;3.20;;;12.70;36.30;;;;;;5013040;28;20630;-78
2022/03/14 06:40:28;;;;;;;7.30;3.07;;;12.80;36.90;;;;;;5005342;28;20432;-77
2022/03/14 06:42:55;;;;;;;2.97;2.10;;;12.90;35.00;;;;;;5009061;28;20491;-77
2022/03/14 06:45:23;;;;;;;3.70;2.40;;;12.80;35.30;;;;;;5002121;28;20709;-78
2022/03/14 06:47:53;;;;;;;4.33;2.80;;;12.90;36.10;;;;;;5004062;28;20483;-77
2022/03/14 06:50:20;;;;;;;6.37;2.97;;;12.80;35.00;;;;;;5014979;28;20412;-80
2022/03/14 06:52:45;;;;;;;5.73;2.40;;;12.60;34.90;;;;;;5021635;28;20461;-79
2022/03/14 06:55:11;;;;;;;3.23;2.33;;;12.50;35.30;;;;;;5016884;28;20472;-80
2022/03/14 06:57:40;;;;;;;3.00;2.30;;;12.40;36.40;;;;;;5014715;28;20185;-78
2022/03/14 07:00:07;;;;;;;4.40;2.20;;;12.10;37.40;;;;;;5012510;28;20663;-73
2022/03/14 07:02:35;;;;;;;3.33;2.37;;;12.60;35.20;;;;;;5008329;28;20442;-74
2022/03/14 07:05:01;;;;;;;4.47;3.20;;;12.70;34.90;;;;;;5010908;28;20428;-74
2022/03/14 07:07:27;;;;;;;8.43;3.30;;;12.80;35.00;;;;;;5011473;28;20423;-74
2022/03/14 07:09:54;;;;;;;3.40;2.50;;;13.10;34.10;;;;;;5004344;28;20503;-74
2022/03/14 07:12:20;;;;;;;3.90;2.70;;;12.90;35.10;;;;;;5004356;28;20190;-74
2022/03/14 07:14:46;;;;;;;3.13;2.20;;;12.80;34.20;;;;;;5008396;28;20630;-74
2022/03/14 07:17:11;;;;;;;2.90;2.10;;;12.80;34.20;;;;;;5011888;28;20416;-76
2022/03/14 07:19:42;;;;;;;2.70;2.00;;;13.00;35.10;;;;;;5001918;28;20205;-75
2022/03/14 07:22:08;;;;;;;3.57;2.37;;;12.90;34.70;;;;;;5000293;28;20671;-76
2022/03/14 07:24:34;;;;;;;2.80;2.30;;;12.60;35.20;;;;;;5009735;28;20862;-76
2022/03/14 07:27:00;;;;;;;3.40;2.40;;;12.20;34.80;;;;;;5011454;28;20427;-77
2022/03/14 07:29:25;;;;;;;3.20;2.57;;;12.70;34.30;;;;;;5011539;28;20177;-76
2022/03/14 07:31:51;;;;;;;4.60;2.60;;;12.50;34.70;;;;;;5011350;28;20201;-77
2022/03/14 07:34:16;;;;;;;3.73;2.50;;;12.30;35.40;;;;;;5004070;28;20231;-76
2022/03/14 07:36:42;;;;;;;7.97;2.90;;;12.40;35.30;;;;;;5010854;28;20208;-75
2022/03/14 07:39:08;;;;;;;3.63;2.33;;;12.20;36.40;;;;;;5011702;28;20201;-75
2022/03/14 07:41:34;;;;;;;4.00;2.67;;;12.20;35.30;;;;;;5009671;28;20217;-76
2022/03/14 07:44:00;;;;;;;4.37;2.37;;;12.40;37.20;;;;;;5011205;28;20647;-75
2022/03/14 07:46:26;;;;;;;4.37;2.27;;;12.20;35.60;;;;;;5009910;28;20174;-75
2022/03/14 07:48:52;;;;;;;3.90;2.40;;;12.40;34.90;;;;;;5002738;28;20432;-75
2022/03/14 07:51:18;;;;;;;6.03;2.30;;;12.70;36.00;;;;;;5011856;28;20462;-75
2022/03/14 07:53:43;;;;;;;2.50;2.20;;;11.90;36.40;;;;;;5012829;28;20247;-76
2022/03/14 07:56:11;;;;;;;4.20;2.40;;;12.50;35.90;;;;;;5014479;28;20585;-78
2022/03/14 07:58:37;;;;;;;5.33;2.63;;;11.70;32.80;;;;;;5013214;28;20566;-77
2022/03/14 08:01:03;;;;;;;4.47;2.60;;;12.40;34.10;;;;;;5012206;28;20497;-75
2022/03/14 08:03:28;;;;;;;4.03;2.23;;;11.60;36.90;;;;;;5011366;28;20918;-78
2022/03/14 08:05:58;;;;;;;3.40;2.47;;;12.10;34.80;;;;;;5013372;28;20424;-77
2022/03/14 08:08:24;;;;;;;3.77;2.47;;;12.10;34.60;;;;;;5010337;28;20173;-75
2022/03/14 08:10:50;;;;;;;3.10;2.17;;;12.20;34.40;;;;;;5011223;28;20487;-76
2022/03/14 08:13:16;;;;;;;3.50;2.73;;;12.00;34.30;;;;;;5003177;28;20424;-75
2022/03/14 08:15:41;;;;;;;2.23;1.90;;;12.00;34.60;;;;;;4999826;28;20190;-76
2022/03/14 08:18:09;;;;;;;2.60;1.80;;;11.40;36.20;;;;;;5010268;28;20659;-76
2022/03/14 08:20:37;;;;;;;4.30;2.30;;;11.40;36.50;;;;;;5018021;28;20220;-76
2022/03/14 08:23:03;;;;;;;2.87;2.13;;;10.80;39.30;;;;;;5010336;28;20474;-76
2022/03/14 08:25:30;;;;;;;2.67;1.90;;;10.90;39.10;;;;;;5011094;28;20431;-76
2022/03/14 08:27:56;;;;;;;4.20;1.90;;;12.10;35.40;;;;;;5009485;28;20435;-76
2022/03/14 08:30:22;;;;;;;2.07;1.60;;;12.00;34.20;;;;;;5004053;28;20448;-77
2022/03/14 08:32:48;;;;;;;4.70;1.77;;;12.00;33.30;;;;;;5009713;28;20510;-77
2022/03/14 08:35:17;;;;;;;2.63;1.80;;;10.70;35.70;;;;;;5028004;28;20443;-76
2022/03/14 08:37:44;;;;;;;2.97;1.70;;;11.00;35.70;;;;;;5011343;28;20515;-76
2022/03/14 08:40:11;;;;;;;2.37;1.93;;;11.30;35.00;;;;;;5014364;28;20473;-75
2022/03/14 08:42:38;;;;;;;3.93;2.10;;;11.80;32.60;;;;;;5009167;28;20436;-74
2022/03/14 08:45:04;;;;;;;4.03;1.93;;;12.20;30.60;;;;;;5011233;28;20418;-74
2022/03/14 08:47:31;;;;;;;3.40;1.97;;;11.90;32.30;;;;;;5007899;28;20424;-76
2022/03/14 08:49:56;;;;;;;3.83;1.93;;;11.60;32.60;;;;;;5006446;28;20930;-74
2022/03/14 08:52:22;;;;;;;3.30;1.73;;;12.60;31.70;;;;;;5014421;28;20454;-74
2022/03/14 08:54:48;;;;;;;4.57;2.23;;;12.70;30.20;;;;;;5011869;28;20179;-74
2022/03/14 08:57:14;;;;;;;2.67;1.97;;;12.80;29.00;;;;;;5013545;28;20252;-75
2022/03/14 08:59:40;;;;;;;7.20;1.87;;;12.60;29.40;;;;;;5014349;28;20453;-75
2022/03/14 09:02:08;;;;;;;5.47;2.10;;;12.30;30.00;;;;;;5013754;28;20500;-75
2022/03/14 09:04:34;;;;;;;3.80;1.90;;;11.80;30.60;;;;;;5006613;28;20659;-75
2022/03/14 09:07:00;;;;;;;3.00;2.07;;;11.80;30.30;;;;;;5011386;28;20429;-75
2022/03/14 09:09:25;;;;;;;6.30;2.07;;;11.80;30.80;;;;;;5014608;28;20501;-75
2022/03/14 09:11:51;;;;;;;7.73;2.10;;;12.40;30.90;;;;;;5014333;28;20595;-75
2022/03/14 09:14:18;;;;;;;3.40;1.90;;;12.70;29.70;;;;;;5014400;28;20184;-76
2022/03/14 09:16:44;;;;;;;2.60;1.90;;;12.10;31.00;;;;;;5008391;28;20527;-76
2022/03/14 09:19:09;;;;;;;4.63;2.10;;;11.70;32.90;;;;;;5011827;28;20468;-76
2022/03/14 09:21:35;;;;;;;2.70;1.60;;;12.50;29.80;;;;;;5013912;28;20281;-76
2022/03/14 09:24:01;;;;;;;2.50;1.90;;;12.20;29.70;;;;;;5014426;28;20182;-76
2022/03/14 09:26:27;;;;;;;3.10;2.00;;;11.70;31.30;;;;;;5004766;28;20262;-76
2022/03/14 09:28:52;;;;;;;7.27;2.30;;;11.90;30.70;;;;;;5009102;28;20187;-76
2022/03/14 09:31:18;;;;;;;5.90;2.37;;;11.50;31.10;;;;;;5013892;28;20537;-76
2022/03/14 09:33:44;;;;;;;6.30;2.40;;;11.60;32.50;;;;;;5028912;28;20182;-76
2022/03/14 09:36:10;;;;;;;6.43;2.20;;;12.20;29.10;;;;;;5005854;28;20180;-76
2022/03/14 09:38:36;;;;;;;3.10;1.70;;;12.20;30.00;;;;;;5013408;28;20209;-76
2022/03/14 09:41:03;;;;;;;5.60;2.10;;;11.10;32.00;;;;;;5005780;28;20963;-76
2022/03/14 09:43:37;;;;;;;4.60;2.00;;;11.40;32.00;;;;;;5013500;28;20214;-76
2022/03/14 09:46:05;;;;;;;5.67;2.07;;;11.40;30.70;;;;;;5014040;28;20933;-77
2022/03/14 09:48:36;;;;;;;4.47;1.90;;;11.90;30.00;;;;;;5012712;28;21006;-77
2022/03/14 09:51:03;;;;;;;5.07;2.03;;;12.10;30.00;;;;;;5006799;28;20977;-77
2022/03/14 09:53:29;;;;;;;4.50;2.10;;;11.70;30.70;;;;;;5012323;28;20448;-76
2022/03/14 09:55:56;;;;;;;9.90;2.07;;;12.00;30.60;;;;;;5013085;28;20461;-76
2022/03/14 09:58:21;;;;;;;4.40;2.30;;;11.80;29.70;;;;;;5020188;28;20435;-77
2022/03/14 10:00:48;;;;;;;6.33;2.30;;;11.90;30.30;;;;;;5005176;28;20525;-77
2022/03/14 10:03:16;;;;;;;10.17;2.60;;;11.90;30.00;;;;;;5012736;28;20512;-77
2022/03/14 10:05:44;;;;;;;4.60;2.20;;;12.40;30.40;;;;;;5004681;28;20427;-75
2022/03/14 10:08:10;;;;;;;6.17;2.20;;;12.80;28.70;;;;;;5005985;28;20421;-74
2022/03/14 10:10:37;;;;;;;4.40;1.93;;;12.30;28.80;;;;;;5011628;28;20873;-74
2022/03/14 10:13:05;;;;;;;3.90;2.20;;;11.90;29.90;;;;;;5003184;28;20478;-74
2022/03/14 10:15:35;;;;;;;5.63;2.10;;;12.20;29.80;;;;;;5011520;28;20442;-76
2022/03/14 10:18:10;;;;;;;4.37;2.27;;;11.90;29.50;;;;;;5007814;28;20494;-75
2022/03/14 10:20:36;;;;;;;5.20;2.10;;;12.60;28.70;;;;;;5011560;28;20463;-75
2022/03/14 10:23:02;;;;;;;6.53;2.83;;;13.20;27.60;;;;;;5009801;28;21058;-76
2022/03/14 10:25:29;;;;;;;4.33;2.57;;;12.30;28.00;;;;;;5021135;28;20444;-76
2022/03/14 10:27:57;;;;;;;5.43;2.30;;;12.80;27.60;;;;;;5011638;28;20175;-75
2022/03/14 10:30:23;;;;;;;5.80;2.00;;;12.50;26.70;;;;;;5015588;28;20447;-76
2022/03/14 10:32:49;;;;;;;5.00;2.03;;;13.30;25.60;;;;;;5005765;28;20425;-75
2022/03/14 10:35:20;;;;;;;5.90;2.40;;;13.20;26.20;;;;;;5013373;28;20426;-75
2022/03/14 10:37:58;;;;;;;9.83;2.73;;;13.50;25.10;;;;;;5009734;28;20236;-75
2022/03/14 10:40:32;;;;;;;5.00;2.30;;;13.20;25.50;;;;;;5009425;28;20544;-75
2022/03/14 10:42:57;;;;;;;5.03;2.30;;;12.80;26.60;;;;;;5004799;28;20419;-75
2022/03/14 10:45:23;;;;;;;5.60;2.13;;;12.90;26.80;;;;;;5004815;28;20486;-75
2022/03/14 10:47:57;;;;;;;5.67;2.40;;;13.40;26.50;;;;;;5009182;28;20424;-75
2022/03/14 10:50:33;;;;;;;6.57;2.20;;;13.40;25.40;;;;;;4997351;28;20546;-75
2022/03/14 10:53:09;;;;;;;10.30;2.80;;;13.80;25.90;;;;;;5003706;28;20443;-75
2022/03/14 10:55:41;;;;;;;4.27;2.30;;;14.00;25.30;;;;;;5011401;28;20427;-75
2022/03/14 10:58:10;;;;;;;7.20;2.70;;;13.40;25.80;;;;;;5011824;28;20424;-75
2022/03/14 11:00:53;;;;;;;8.83;2.40;;;14.30;23.10;;;;;;5009724;28;20457;-76
2022/03/14 11:03:42;;;;;;;5.63;2.37;;;14.70;22.60;;;;;;5009973;28;20410;-76
2022/03/14 11:06:13;;;;;;;5.77;2.60;;;15.50;20.90;;;;;;5007062;28;20432;-76
2022/03/14 11:08:42;;;;;;;5.67;2.20;;;15.10;20.60;;;;;;5009797;28;20417;-76
2022/03/14 11:11:11;;;;;;;4.87;2.50;;;15.60;20.90;;;;;;5009444;28;20432;-76
2022/03/14 11:13:45;;;;;;;11.03;2.43;;;17.70;19.20;;;;;;5011697;28;20472;-77
2022/03/14 11:16:21;;;;;;;6.33;2.80;;;18.70;17.60;;;;;;5006546;28;20412;-77
2022/03/14 11:18:48;;;;;;;3.90;2.40;;;19.30;15.60;;;;;;5003703;28;20462;-77
2022/03/14 11:21:15;;;;;;;9.30;2.50;;;19.70;16.10;;;;;;5003796;28;20588;-77
2022/03/14 11:23:46;;;;;;;7.03;2.40;;;20.20;14.80;;;;;;5003844;28;20795;-77
2022/03/14 11:26:13;;;;;;;6.37;2.57;;;20.50;14.60;;;;;;5012709;28;20487;-77
2022/03/14 11:28:41;;;;;;;4.43;2.33;;;21.20;13.20;;;;;;5011506;28;20426;-77
2022/03/14 11:31:07;;;;;;;5.67;2.53;;;21.50;12.40;;;;;;5004150;28;20798;-77
2022/03/14 11:33:35;;;;;;;10.43;2.30;;;21.40;12.20;;;;;;5004790;28;20431;-77
2022/03/14 11:36:02;;;;;;;4.90;2.50;;;20.30;13.80;;;;;;5011135;28;20507;-76
2022/03/14 11:38:29;;;;;;;7.40;2.50;;;21.10;12.10;;;;;;5004652;28;20508;-77
2022/03/14 11:40:56;;;;;;;6.93;2.60;;;22.30;13.10;;;;;;5010973;28;20458;-77
2022/03/14 11:43:22;;;;;;;5.50;2.70;;;23.10;11.40;;;;;;5011240;28;20424;-77
2022/03/14 11:45:50;;;;;;;5.20;2.40;;;24.10;9.50;;;;;;5003424;28;20452;-75
2022/03/14 11:48:16;;;;;;;6.27;2.47;;;24.40;11.50;;;;;;5010940;28;20420;-75
2022/03/14 11:50:47;;;;;;;5.13;2.40;;;24.60;9.90;;;;;;5007165;28;20514;-75
2022/03/14 11:53:24;;;;;;;6.73;2.40;;;23.30;9.70;;;;;;5009919;28;20428;-76
2022/03/14 11:55:58;;;;;;;5.80;2.47;;;23.60;9.50;;;;;;5011472;28;20778;-75
2022/03/14 11:58:36;;;;;;;4.40;2.37;;;23.90;9.20;;;;;;5004495;28;20428;-76
2022/03/14 12:01:23;;;;;;;4.20;2.20;;;23.90;9.40;;;;;;5010648;28;20549;-75
2022/03/14 12:03:48;;;;;;;4.87;2.40;;;22.30;12.30;;;;;;5011415;28;20427;-75
2022/03/14 12:06:14;;;;;;;7.20;2.50;;;23.80;11.30;;;;;;5002209;28;20792;-75
2022/03/14 12:08:45;;;;;;;5.40;2.40;;;25.30;8.20;;;;;;5010793;28;20259;-75
2022/03/14 12:11:26;;;;;;;3.60;2.07;;;26.10;7.50;;;;;;5009607;28;20193;-75
2022/03/14 12:13:52;;;;;;;3.20;2.00;;;25.90;8.40;;;;;;5003639;28;20428;-75
2022/03/14 12:16:41;;;;;;;3.97;2.20;;;26.20;8.50;;;;;;5007921;28;20431;-75
2022/03/14 12:19:30;;;;;;;5.80;2.40;;;26.30;7.80;;;;;;5008538;28;20452;-74
2022/03/14 12:21:58;;;;;;;4.60;2.57;;;25.90;6.80;;;;;;5004711;28;20744;-75
2022/03/14 12:24:35;;;;;;;5.47;2.40;;;25.30;9.20;;;;;;5006004;28;20455;-75
2022/03/14 12:27:22;;;;;;;4.60;2.60;;;25.50;7.40;;;;;;5006010;28;20432;-75
2022/03/14 12:29:52;;;;;;;4.80;2.50;;;25.70;9.10;;;;;;5002064;28;20432;-75
2022/03/14 12:32:36;;;;;;;8.60;2.20;;;24.90;8.60;;;;;;5010116;28;20984;-75
2022/03/14 12:35:04;;;;;;;5.27;2.00;;;24.70;8.50;;;;;;5011396;28;20986;-75
2022/03/14 12:37:49;;;;;;;4.87;2.40;;;24.40;8.30;;;;;;5009433;28;20787;-75
2022/03/14 12:40:21;;;;;;;4.70;2.17;;;24.90;7.70;;;;;;5002671;28;20479;-75
2022/03/14 12:42:52;;;;;;;4.40;2.20;;;23.10;8.00;;;;;;5010483;28;20416;-75
2022/03/14 12:45:22;;;;;;;4.43;2.40;;;21.50;9.50;;;;;;5010146;28;20431;-75